createdAt,value
2019-04-02T08:16:51.300Z,13.30
2019-04-02T08:19:21.503Z,13.20
2019-04-02T08:21:54.735Z,13.30
2019-04-02T08:24:25.625Z,13.40
2019-04-02T08:26:56.243Z,13.50
2019-04-02T08:29:26.405Z,13.40
2019-04-02T08:31:57.719Z,13.50
2019-04-02T08:34:27.866Z,13.50
2019-04-02T08:36:58.186Z,13.60
2019-04-02T08:39:28.530Z,13.80
2019-04-02T08:41:58.964Z,13.90
2019-04-02T08:44:29.336Z,14.00
2019-04-02T08:46:59.895Z,14.00
2019-04-02T08:49:30.201Z,14.00
2019-04-02T08:52:01.220Z,14.00
2019-04-02T08:54:31.950Z,14.20
2019-04-02T08:57:02.303Z,14.20
2019-04-02T08:59:32.615Z,14.10
2019-04-02T09:02:05.785Z,14.10
2019-04-02T09:04:34.906Z,14.10
2019-04-02T09:07:05.373Z,14.00
2019-04-02T09:09:36.091Z,13.90
2019-04-02T09:12:06.521Z,13.90
2019-04-02T09:14:36.806Z,13.80
2019-04-02T09:17:06.996Z,13.80
2019-04-02T09:19:37.593Z,13.80
2019-04-02T09:22:08.098Z,13.70
2019-04-02T09:24:38.618Z,13.70
2019-04-02T09:27:08.838Z,13.70
2019-04-02T09:29:39.118Z,13.60
2019-04-02T09:32:09.347Z,13.60
2019-04-02T09:34:39.958Z,13.70
2019-04-02T09:37:10.523Z,13.70
2019-04-02T09:39:40.783Z,13.80
2019-04-02T09:42:12.069Z,13.90
2019-04-02T09:44:42.683Z,13.80
2019-04-02T09:47:12.986Z,13.70
2019-04-02T09:49:43.236Z,13.60
2019-04-02T09:52:14.197Z,13.40
2019-04-02T09:54:44.454Z,13.40
2019-04-02T09:57:14.680Z,13.50
2019-04-02T09:59:45.243Z,13.70
2019-04-02T10:02:16.800Z,13.80
2019-04-02T10:04:47.077Z,14.00
2019-04-02T10:07:17.542Z,14.30
2019-04-02T10:09:47.833Z,14.50
2019-04-02T10:12:18.024Z,14.50
2019-04-02T10:14:48.546Z,14.40
2019-04-02T10:17:18.806Z,14.30
2019-04-02T10:19:49.097Z,14.00
2019-04-02T10:22:19.895Z,13.90
2019-04-02T10:24:50.223Z,13.80
2019-04-02T10:27:20.515Z,13.60
2019-04-02T10:29:51.254Z,13.40
2019-04-02T10:32:24.334Z,13.20
2019-04-02T10:34:54.656Z,13.20
2019-04-02T10:37:25.729Z,13.20
2019-04-02T10:39:56.044Z,13.00
2019-04-02T10:42:28.338Z,12.90
2019-04-02T10:44:58.637Z,12.70
2019-04-02T10:47:30.862Z,12.70
2019-04-02T10:50:01.816Z,12.70
2019-04-02T10:52:32.533Z,12.80
2019-04-02T10:55:02.885Z,12.90
2019-04-02T10:57:33.171Z,13.00
2019-04-02T11:00:03.806Z,13.10
2019-04-02T11:02:34.551Z,13.30
2019-04-02T11:05:05.974Z,13.50
2019-04-02T11:07:37.420Z,13.50
2019-04-02T11:10:08.480Z,13.60
2019-04-02T11:12:38.946Z,13.70
2019-04-02T11:15:10.185Z,13.90
2019-04-02T11:17:40.501Z,14.10
2019-04-02T11:20:11.310Z,14.20
2019-04-02T11:22:41.529Z,14.40
2019-04-02T11:25:12.570Z,14.70
2019-04-02T11:27:42.863Z,15.20
2019-04-02T11:30:15.078Z,16.30
2019-04-02T11:32:45.630Z,17.20
2019-04-02T11:35:16.671Z,17.70
2019-04-02T11:37:46.904Z,17.70
2019-04-02T11:40:17.698Z,17.40
2019-04-02T11:42:47.979Z,17.60
2019-04-02T11:45:19.302Z,19.00
2019-04-02T11:47:49.929Z,20.50
2019-04-02T11:50:20.529Z,21.30
2019-04-02T11:52:50.806Z,21.50
2019-04-02T11:55:21.132Z,21.40
2019-04-02T11:57:51.743Z,21.50
2019-04-02T12:00:25.716Z,21.90
2019-04-02T12:02:56.427Z,22.20
2019-04-02T12:05:26.797Z,22.40
2019-04-02T12:07:57.158Z,22.00
2019-04-02T12:10:27.503Z,22.50
2019-04-02T12:12:58.041Z,22.90
2019-04-02T12:15:46.069Z,23.10
2019-04-02T12:18:00.139Z,22.90
2019-04-02T12:20:32.720Z,23.40
2019-04-02T12:23:03.703Z,23.70
2019-04-02T12:28:00.457Z,23.60
2019-04-02T12:30:30.661Z,22.80
2019-04-02T12:33:01.361Z,22.90
2019-04-02T12:35:31.875Z,22.70
2019-04-02T12:38:02.261Z,23.10
2019-04-02T12:40:32.602Z,23.80
2019-04-02T12:43:02.849Z,23.40
2019-04-02T12:45:33.532Z,23.10
2019-04-02T12:48:03.816Z,22.70
2019-04-02T12:50:34.077Z,23.30
2019-04-02T12:53:04.280Z,23.00
2019-04-02T12:55:34.607Z,23.00
2019-04-02T12:58:04.866Z,23.60
2019-04-02T13:00:35.613Z,24.60
2019-04-02T13:03:06.307Z,25.00
2019-04-02T13:05:36.797Z,24.30
2019-04-02T13:08:07.042Z,23.90
2019-04-02T13:10:37.369Z,23.60
2019-04-02T13:13:07.714Z,23.80
2019-04-02T13:15:38.207Z,23.70
2019-04-02T13:18:08.519Z,24.60
2019-04-02T13:20:39.089Z,25.40
2019-04-02T13:23:09.390Z,25.40
2019-04-02T13:25:39.596Z,25.50
2019-04-02T13:28:09.844Z,24.80
2019-04-02T13:30:40.068Z,24.80
2019-04-02T13:33:10.383Z,24.40
2019-04-02T13:35:40.569Z,24.30
2019-04-02T13:38:10.829Z,23.90
2019-04-02T13:40:41.045Z,22.70
2019-04-02T13:43:11.371Z,22.40
2019-04-02T13:45:42.043Z,23.60
2019-04-02T13:48:12.236Z,23.70
2019-04-02T13:50:42.386Z,22.40
2019-04-02T13:53:12.597Z,21.70
2019-04-02T13:55:42.821Z,20.90
2019-04-02T13:58:13.035Z,20.50
2019-04-02T14:01:20.724Z,20.50
2019-04-02T14:03:51.402Z,20.10
2019-04-02T14:06:21.691Z,20.50
2019-04-02T14:08:51.928Z,22.30
2019-04-02T14:11:22.175Z,23.00
2019-04-02T14:13:52.386Z,21.80
2019-04-02T14:16:22.649Z,20.30
2019-04-02T14:18:52.915Z,18.90
2019-04-02T14:21:23.174Z,18.10
2019-04-02T14:23:53.404Z,17.60
2019-04-02T14:26:23.698Z,16.80
2019-04-02T14:28:54.228Z,15.60
2019-04-02T14:31:26.834Z,14.10
2019-04-02T14:33:57.131Z,12.60
2019-04-02T14:36:27.335Z,11.30
2019-04-02T14:38:57.988Z,10.50
2019-04-02T14:41:28.219Z,10.20
2019-04-02T14:43:58.512Z,10.00
2019-04-02T14:46:28.764Z,9.90
2019-04-02T14:48:59.420Z,9.80
2019-04-02T14:51:30.026Z,9.80
2019-04-02T14:54:00.196Z,9.80
2019-04-02T14:56:30.603Z,9.70
2019-04-02T14:59:00.818Z,9.80
2019-04-02T15:01:31.126Z,9.80
2019-04-02T15:04:01.386Z,9.70
2019-04-02T15:06:31.595Z,9.70
2019-04-02T15:09:01.794Z,9.70
2019-04-02T15:11:35.387Z,9.70
2019-04-02T15:14:06.632Z,9.60
2019-04-02T15:16:37.054Z,9.60
2019-04-02T15:19:07.291Z,9.70
2019-04-02T15:21:40.382Z,9.80
2019-04-02T15:24:11.102Z,9.80
2019-04-02T15:26:41.340Z,9.80
2019-04-02T15:29:11.566Z,9.90
2019-04-02T15:31:42.128Z,9.90
2019-04-02T15:34:12.688Z,9.90
2019-04-02T15:36:42.961Z,9.90
2019-04-02T15:39:13.224Z,10.00
2019-04-02T15:41:43.799Z,10.00
2019-04-02T15:44:14.372Z,10.00
2019-04-02T15:46:44.626Z,10.10
2019-04-02T15:49:15.171Z,10.30
2019-04-02T15:51:45.380Z,10.30
2019-04-02T15:54:17.609Z,10.30
2019-04-02T15:56:47.594Z,10.30
2019-04-02T15:59:21.416Z,10.30
2019-04-02T16:01:50.799Z,10.40
2019-04-02T16:04:21.382Z,10.50
2019-04-02T16:06:52.029Z,10.70
2019-04-02T16:09:23.318Z,10.80
2019-04-02T16:11:54.109Z,11.00
2019-04-02T16:14:24.316Z,11.10
2019-04-02T16:16:55.391Z,11.20
2019-04-02T16:19:25.650Z,11.40
2019-04-02T16:21:58.008Z,11.50
2019-04-02T16:24:28.406Z,11.50
2019-04-02T16:26:58.642Z,11.40
2019-04-02T16:29:28.839Z,11.40
2019-04-02T16:31:59.072Z,11.30
2019-04-02T16:34:38.324Z,11.30
2019-04-02T16:37:01.867Z,11.30
2019-04-02T16:39:33.645Z,11.30
2019-04-02T16:42:03.958Z,11.20
2019-04-02T16:44:36.953Z,11.20
2019-04-02T16:47:07.409Z,11.20
2019-04-02T16:49:37.752Z,11.20
2019-04-02T16:52:08.421Z,11.10
2019-04-02T16:54:38.621Z,11.10
2019-04-02T16:57:09.591Z,11.10
2019-04-02T16:59:39.774Z,11.00
2019-04-02T17:02:10.130Z,11.00
2019-04-02T17:04:40.377Z,11.00
2019-04-02T17:07:22.874Z,10.90
2019-04-02T17:09:42.553Z,10.90
2019-04-02T17:12:12.833Z,10.90
2019-04-02T17:14:43.071Z,10.90
2019-04-02T17:17:13.307Z,10.90
2019-04-02T17:19:43.590Z,10.90
2019-04-02T17:22:14.008Z,10.80
2019-04-02T17:24:44.520Z,10.90
2019-04-02T17:27:15.082Z,10.80
2019-04-02T17:29:45.621Z,10.80
2019-04-02T17:32:16.133Z,10.80
2019-04-02T17:34:46.364Z,10.80
2019-04-02T17:37:16.643Z,10.70
2019-04-02T17:39:50.017Z,10.70
2019-04-02T17:42:19.722Z,10.70
2019-04-02T17:44:50.458Z,10.60
2019-04-02T17:47:21.059Z,10.60
2019-04-02T17:49:51.266Z,10.60
2019-04-02T17:52:21.520Z,10.60
2019-04-02T17:54:52.387Z,10.50
2019-04-02T17:57:23.039Z,10.50
2019-04-02T17:59:53.293Z,10.40
2019-04-02T18:02:25.710Z,10.40
2019-04-02T18:04:55.459Z,10.30
2019-04-02T18:07:25.969Z,10.20
2019-04-02T18:09:56.163Z,10.10
2019-04-02T18:12:26.358Z,10.00
2019-04-02T18:14:56.578Z,9.90
2019-04-02T18:17:26.850Z,9.80
2019-04-02T18:19:57.050Z,9.70
2019-04-02T18:22:27.238Z,9.70
2019-04-02T18:24:57.427Z,9.60
2019-04-02T18:27:27.639Z,9.50
2019-04-02T18:29:57.826Z,9.50
2019-04-02T18:32:28.100Z,9.40
2019-04-02T18:34:58.286Z,9.30
2019-04-02T18:37:29.337Z,9.30
2019-04-02T18:40:00.076Z,9.30
2019-04-02T18:42:31.737Z,9.20
2019-04-02T18:45:01.941Z,9.10
2019-04-02T18:47:32.312Z,9.10
2019-04-02T18:50:02.472Z,9.00
2019-04-02T18:52:32.849Z,8.80
2019-04-02T18:55:03.250Z,8.80
2019-04-02T18:57:33.769Z,8.80
2019-04-02T19:00:05.402Z,8.70
2019-04-02T19:02:35.794Z,8.70
2019-04-02T19:05:06.947Z,8.70
2019-04-02T19:07:37.322Z,8.70
2019-04-02T19:10:14.040Z,8.60
2019-04-02T19:12:40.287Z,8.60
2019-04-02T19:15:10.683Z,8.60
2019-04-02T19:17:40.905Z,8.50
2019-04-02T19:20:11.415Z,8.40
2019-04-02T19:22:42.072Z,8.40
2019-04-02T19:25:12.266Z,8.30
2019-04-02T19:27:42.492Z,8.20
2019-04-02T19:30:12.867Z,8.20
2019-04-02T19:32:43.441Z,8.20
2019-04-02T19:35:13.823Z,8.30
2019-04-02T19:37:45.501Z,8.30
2019-04-02T19:40:15.955Z,8.30
2019-04-02T19:42:46.437Z,8.30
2019-04-02T19:45:17.018Z,8.20
2019-04-02T19:47:47.260Z,8.20
2019-04-02T19:50:18.078Z,8.20
2019-04-02T19:52:48.972Z,8.10
2019-04-02T19:55:19.427Z,8.10
2019-04-02T19:57:53.422Z,8.10
2019-04-02T20:00:21.597Z,8.10
2019-04-02T20:02:51.986Z,8.00
2019-04-02T20:05:22.497Z,8.10
2019-04-02T20:07:52.990Z,8.20
2019-04-02T20:10:23.165Z,8.20
2019-04-02T20:12:53.338Z,8.20
2019-04-02T20:15:24.086Z,8.30
2019-04-02T20:17:54.344Z,8.40
2019-04-02T20:20:24.523Z,8.50
2019-04-02T20:22:55.282Z,8.50
2019-04-02T20:25:25.533Z,8.50
2019-04-02T20:27:55.633Z,8.50
2019-04-02T20:30:26.165Z,8.50
2019-04-02T20:32:56.730Z,8.50
2019-04-02T20:35:27.001Z,8.50
2019-04-02T20:37:58.239Z,8.50
2019-04-02T20:40:29.470Z,8.50
2019-04-02T20:42:59.846Z,8.40
2019-04-02T20:45:31.948Z,8.40
2019-04-02T20:48:03.809Z,8.30
2019-04-02T20:50:33.965Z,8.20
2019-04-02T20:53:15.667Z,8.20
2019-04-02T20:55:36.512Z,8.20
2019-04-02T20:58:09.385Z,8.20
2019-04-02T21:00:38.880Z,8.20
2019-04-02T21:03:09.401Z,8.20
2019-04-02T21:05:39.669Z,8.20
2019-04-02T21:08:21.712Z,8.20
2019-04-02T21:10:41.887Z,8.20
2019-04-02T21:13:14.793Z,8.10
2019-04-02T21:15:43.956Z,8.10
2019-04-02T21:18:14.177Z,8.10
2019-04-02T21:20:45.094Z,8.00
2019-04-02T21:23:17.798Z,8.00
2019-04-02T21:25:49.620Z,7.90
2019-04-02T21:28:20.003Z,7.80
2019-04-02T21:30:51.251Z,7.80
2019-04-02T21:33:33.541Z,7.70
2019-04-02T21:35:54.462Z,7.60
2019-04-02T21:38:24.744Z,7.50
2019-04-02T21:40:56.100Z,7.50
2019-04-02T21:43:26.371Z,7.50
2019-04-02T21:45:56.683Z,7.40
2019-04-02T21:48:26.936Z,7.40
2019-04-02T21:50:57.401Z,7.40
2019-04-02T21:53:27.678Z,7.40
2019-04-02T21:55:57.869Z,7.40
2019-04-02T21:58:28.484Z,7.30
2019-04-02T22:00:58.740Z,7.20
2019-04-02T22:03:29.125Z,7.20
2019-04-02T22:05:59.302Z,7.10
2019-04-02T22:08:30.153Z,7.10
2019-04-02T22:11:00.805Z,7.10
2019-04-02T22:13:31.412Z,7.00
2019-04-02T22:16:04.678Z,6.90
2019-04-02T22:18:33.610Z,6.90
2019-04-02T22:21:03.795Z,6.90
2019-04-02T22:23:34.092Z,6.80
2019-04-02T22:26:04.610Z,6.70
2019-04-02T22:28:34.863Z,6.60
2019-04-02T22:31:06.030Z,6.60
2019-04-02T22:33:37.989Z,6.60
2019-04-02T22:36:08.599Z,6.50
2019-04-02T22:38:39.189Z,6.50
2019-04-02T22:41:09.669Z,6.40
2019-04-02T22:43:39.823Z,6.50
2019-04-02T22:46:10.043Z,6.50
2019-04-02T22:48:40.266Z,6.50
2019-04-02T22:51:10.492Z,6.50
2019-04-02T22:53:41.071Z,6.40
2019-04-02T22:56:11.813Z,6.40
2019-04-02T22:58:42.371Z,6.20
2019-04-02T23:01:12.664Z,6.20
2019-04-02T23:03:42.975Z,6.10
2019-04-02T23:06:13.845Z,6.00
2019-04-02T23:08:44.063Z,6.00
2019-04-02T23:11:14.336Z,6.10
2019-04-02T23:13:44.612Z,6.10
2019-04-02T23:16:25.821Z,6.10
2019-04-02T23:18:47.123Z,6.10
2019-04-02T23:21:17.307Z,6.00
2019-04-02T23:23:47.527Z,6.00
2019-04-02T23:26:18.291Z,5.90
2019-04-02T23:28:50.552Z,5.90
2019-04-02T23:31:20.657Z,5.80
2019-04-02T23:33:50.862Z,5.70
2019-04-02T23:36:21.331Z,5.70
2019-04-02T23:38:53.419Z,5.60
2019-04-02T23:41:23.844Z,5.60
2019-04-02T23:43:54.455Z,5.60
2019-04-02T23:46:24.614Z,5.40
2019-04-02T23:48:54.881Z,5.40
2019-04-02T23:51:25.133Z,5.40
2019-04-02T23:53:55.690Z,5.30
2019-04-02T23:56:26.188Z,5.20
2019-04-02T23:58:56.388Z,5.10
